Time;durP1;ratioP1;P1;durP2;ratioP2;P2;SDS_P1;SDS_P2;PMS_P1;PMS_P2;Temp;Humidity;BMP_temperature;BMP_pressure;BME280_temperature;BME280_humidity;BME280_pressure;Samples;Min_cycle;Max_cycle;Signal;HPM_P1;HPM_P2
2021/03/23 00:00:58;;;;;;;13.13;4.88;;;;;;;6.13;79.20;101319.56;4990689;28;20042;-48
2021/03/23 00:03:39;;;;;;;10.85;5.50;;;;;;;6.03;79.15;101318.19;4998243;28;20547;-49
2021/03/23 00:06:08;;;;;;;11.93;5.45;;;;;;;6.06;79.42;101320.91;4990863;28;20050;-49
2021/03/23 00:08:39;;;;;;;12.00;5.55;;;;;;;5.84;81.17;101323.91;4991835;28;20056;-49
2021/03/23 00:11:13;;;;;;;12.60;6.07;;;;;;;6.25;79.55;101326.97;4990369;28;20058;-51
2021/03/23 00:13:41;;;;;;;13.68;4.88;;;;;;;5.99;80.34;101326.44;4994098;28;20626;-46
2021/03/23 00:16:09;;;;;;;14.35;5.40;;;;;;;5.77;81.77;101326.03;4990374;28;20604;-49
2021/03/23 00:18:36;;;;;;;10.68;4.80;;;;;;;6.11;80.78;101333.88;4991886;28;20420;-48
2021/03/23 00:21:03;;;;;;;14.38;5.13;;;;;;;6.06;80.86;101326.00;4990515;28;20422;-51
2021/03/23 00:23:29;;;;;;;13.13;5.40;;;;;;;6.24;80.70;101331.19;4992364;28;20052;-46
2021/03/23 00:25:56;;;;;;;11.10;5.10;;;;;;;6.02;80.94;101326.63;4990153;28;20061;-52
2021/03/23 00:28:24;;;;;;;10.40;5.07;;;;;;;6.11;81.25;101328.78;4983090;28;20050;-51
2021/03/23 00:30:54;;;;;;;11.93;5.10;;;;;;;6.25;80.54;101320.22;4990051;28;20297;-49
2021/03/23 00:33:22;;;;;;;10.27;4.45;;;;;;;6.01;82.05;101327.41;4992206;28;20057;-50
2021/03/23 00:35:53;;;;;;;11.80;4.80;;;;;;;6.20;81.64;101328.41;4989616;28;20054;-47
2021/03/23 00:38:20;;;;;;;15.50;5.40;;;;;;;6.01;82.32;101327.41;4991566;28;20412;-48
2021/03/23 00:40:46;;;;;;;11.10;5.35;;;;;;;6.19;82.01;101324.09;4990220;28;20496;-53
2021/03/23 00:43:13;;;;;;;13.52;5.38;;;;;;;6.35;81.56;101321.56;4990954;28;20057;-51
2021/03/23 00:45:42;;;;;;;12.13;4.97;;;;;;;6.25;81.68;101320.22;4990259;28;20058;-50
2021/03/23 00:48:11;;;;;;;10.85;5.00;;;;;;;6.01;83.25;101324.88;4990209;28;20050;-49
2021/03/23 00:50:38;;;;;;;12.90;4.40;;;;;;;5.93;83.87;101318.50;4994276;28;20142;-49
2021/03/23 00:53:05;;;;;;;10.35;4.40;;;;;;;6.13;83.45;101328.06;4989696;28;20050;-47
2021/03/23 00:55:32;;;;;;;12.90;4.93;;;;;;;6.27;83.02;101331.34;4993310;28;20504;-48
2021/03/23 00:57:58;;;;;;;11.40;4.47;;;;;;;6.44;82.03;101326.28;4989600;28;20046;-51
2021/03/23 01:00:26;;;;;;;8.38;4.18;;;;;;;6.28;82.97;101329.66;4991831;28;20058;-48
2021/03/23 01:02:52;;;;;;;17.67;4.80;;;;;;;6.25;82.96;101330.41;4994090;28;20064;-47
2021/03/23 01:05:22;;;;;;;6.60;3.78;;;;;;;6.06;83.93;101331.06;4991737;28;20046;-47
2021/03/23 01:07:49;;;;;;;10.68;3.90;;;;;;;6.20;83.25;101329.28;4989341;28;20348;-50
2021/03/23 01:10:17;;;;;;;7.78;3.78;;;;;;;6.00;84.88;101325.63;4990980;28;20337;-48
2021/03/23 01:12:45;;;;;;;11.60;4.53;;;;;;;6.08;85.67;101331.16;4989676;28;20093;-50
2021/03/23 01:15:16;;;;;;;10.13;4.28;;;;;;;6.09;86.25;101333.75;4989677;28;20793;-49
2021/03/23 01:17:42;;;;;;;9.75;4.80;;;;;;;6.06;88.42;101336.16;4989604;28;20042;-52
2021/03/23 01:20:12;;;;;;;9.32;4.15;;;;;;;5.95;89.61;101326.19;4989390;28;20129;-49
2021/03/23 01:22:38;;;;;;;7.47;4.18;;;;;;;6.10;89.80;101335.53;4990563;28;20148;-50
2021/03/23 01:25:06;;;;;;;9.35;4.93;;;;;;;5.86;90.97;101334.16;4989073;28;20501;-50
2021/03/23 01:27:33;;;;;;;9.57;4.70;;;;;;;5.84;92.79;101335.75;4992836;28;20038;-51
2021/03/23 01:30:00;;;;;;;10.15;4.50;;;;;;;5.75;93.58;101336.09;4989656;28;20464;-47
2021/03/23 01:32:26;;;;;;;13.70;5.65;;;;;;;6.07;92.04;101335.34;4991008;28;20060;-51
2021/03/23 01:34:53;;;;;;;9.02;4.30;;;;;;;5.92;93.09;101332.00;4988708;28;20058;-49
2021/03/23 01:37:20;;;;;;;12.27;5.03;;;;;;;5.69;94.34;101334.91;4990519;28;20057;-49
2021/03/23 01:39:47;;;;;;;11.13;4.50;;;;;;;5.92;93.25;101336.22;4989125;28;20043;-48
2021/03/23 01:42:14;;;;;;;10.93;4.85;;;;;;;5.84;93.26;101330.66;4987824;28;20073;-51
2021/03/23 01:44:43;;;;;;;7.90;5.25;;;;;;;5.85;92.37;101338.34;4989796;28;20072;-50
2021/03/23 01:47:11;;;;;;;12.52;5.13;;;;;;;5.77;94.52;101337.06;4988790;28;20058;-48
2021/03/23 01:49:42;;;;;;;10.05;4.95;;;;;;;5.80;93.47;101336.38;4990074;28;20050;-46
2021/03/23 01:52:12;;;;;;;9.55;4.45;;;;;;;5.70;93.66;101326.50;4990424;28;20509;-48
2021/03/23 01:54:44;;;;;;;9.18;4.72;;;;;;;5.54;94.57;101334.91;4993324;28;20049;-47
2021/03/23 01:57:13;;;;;;;9.15;4.97;;;;;;;5.80;94.17;101323.66;4992769;28;20046;-50
2021/03/23 01:59:44;;;;;;;11.80;5.32;;;;;;;5.45;95.21;101327.63;4992915;28;20042;-45
2021/03/23 02:02:11;;;;;;;11.60;5.20;;;;;;;5.84;93.80;101328.13;4993020;28;20054;-48
2021/03/23 02:04:38;;;;;;;11.20;5.45;;;;;;;5.54;95.00;101323.06;4993422;28;20470;-48
2021/03/23 02:07:05;;;;;;;11.05;4.90;;;;;;;5.49;94.87;101321.06;4991812;28;20055;-49
2021/03/23 02:09:35;;;;;;;9.90;4.95;;;;;;;5.42;95.94;101324.94;4995533;28;20046;-48
2021/03/23 02:12:14;;;;;;;10.00;5.10;;;;;;;5.87;93.64;101325.75;4991863;28;20046;-52
2021/03/23 02:14:44;;;;;;;10.60;5.43;;;;;;;5.84;93.48;101325.56;4995831;28;20054;-49
2021/03/23 02:17:13;;;;;;;10.18;4.95;;;;;;;5.82;93.18;101324.59;4992164;28;20050;-50
2021/03/23 02:19:40;;;;;;;11.02;5.47;;;;;;;5.81;93.18;101325.41;4992856;28;20528;-45
2021/03/23 02:22:14;;;;;;;8.40;5.40;;;;;;;5.70;94.61;101329.91;4991843;28;20408;-50
2021/03/23 02:24:40;;;;;;;12.70;6.03;;;;;;;5.69;94.34;101332.38;4992578;28;20058;-48
2021/03/23 02:27:07;;;;;;;10.90;6.00;;;;;;;5.77;94.13;101326.88;4991458;28;20052;-48
2021/03/23 02:29:35;;;;;;;10.60;6.15;;;;;;;5.49;95.21;101332.09;4993602;28;20048;-48
2021/03/23 02:32:02;;;;;;;12.77;6.15;;;;;;;5.72;94.39;101333.38;4991420;28;20062;-51
2021/03/23 02:34:29;;;;;;;15.57;6.20;;;;;;;5.60;94.90;101327.66;4993809;28;20279;-46
2021/03/23 02:36:55;;;;;;;12.63;6.30;;;;;;;5.55;95.59;101329.06;4991735;28;20050;-48
2021/03/23 02:39:26;;;;;;;11.45;6.15;;;;;;;5.83;93.86;101339.09;4997713;28;20064;-48
2021/03/23 02:41:54;;;;;;;9.40;5.88;;;;;;;5.66;93.97;101327.97;4991851;28;20054;-47
2021/03/23 02:44:21;;;;;;;13.15;6.88;;;;;;;5.62;94.22;101338.75;4993028;28;20054;-48
2021/03/23 02:46:48;;;;;;;12.18;7.43;;;;;;;5.63;93.87;101331.22;4991844;28;20503;-51
2021/03/23 02:49:15;;;;;;;10.93;6.53;;;;;;;5.77;92.52;101334.50;4992572;28;20112;-50
2021/03/23 02:51:42;;;;;;;11.65;6.85;;;;;;;5.51;94.20;101332.22;4991454;28;20050;-51
2021/03/23 02:54:09;;;;;;;11.20;8.07;;;;;;;5.61;94.34;101339.56;4991506;28;20081;-47
2021/03/23 02:56:35;;;;;;;13.10;7.25;;;;;;;5.55;93.97;101340.09;4992716;28;20046;-48
2021/03/23 02:59:02;;;;;;;15.32;8.65;;;;;;;5.60;93.78;101345.44;4991255;28;20696;-47
2021/03/23 03:01:28;;;;;;;12.80;7.78;;;;;;;5.41;95.63;101340.97;4993774;28;20076;-49
2021/03/23 03:03:57;;;;;;;11.13;7.72;;;;;;;5.52;94.52;101345.00;4984704;28;20050;-49
2021/03/23 03:06:24;;;;;;;13.48;7.13;;;;;;;5.54;94.61;101339.97;4997309;28;20054;-46
2021/03/23 03:08:50;;;;;;;11.15;7.00;;;;;;;5.53;94.16;101343.31;4996120;28;20046;-47
2021/03/23 03:11:17;;;;;;;14.77;7.90;;;;;;;5.53;94.50;101351.81;4993471;28;20504;-46
2021/03/23 03:13:43;;;;;;;11.20;7.43;;;;;;;5.57;93.99;101357.94;4991222;28;20415;-51
2021/03/23 03:16:10;;;;;;;14.57;8.27;;;;;;;5.42;95.50;101349.47;4991656;28;20058;-52
2021/03/23 03:18:36;;;;;;;12.45;8.00;;;;;;;5.64;93.45;101349.91;4991949;28;20129;-49
2021/03/23 03:21:03;;;;;;;15.32;8.07;;;;;;;5.33;95.69;101354.91;4990877;28;20065;-53
2021/03/23 03:23:30;;;;;;;12.70;8.18;;;;;;;5.17;95.87;101357.31;4992793;28;20056;-50
2021/03/23 03:26:01;;;;;;;14.15;8.20;;;;;;;5.47;95.33;101364.19;4990678;28;20073;-50
2021/03/23 03:28:27;;;;;;;12.23;7.82;;;;;;;5.40;94.52;101364.59;4992504;28;20159;-50
2021/03/23 03:30:55;;;;;;;13.38;7.75;;;;;;;5.42;94.07;101359.63;4991779;28;20058;-48
2021/03/23 03:33:23;;;;;;;12.07;7.53;;;;;;;5.27;95.83;101360.50;4992104;28;20046;-50
2021/03/23 03:35:51;;;;;;;12.18;8.18;;;;;;;5.29;95.50;101364.00;4990555;28;20050;-47
2021/03/23 03:38:21;;;;;;;14.07;7.35;;;;;;;5.71;93.80;101363.81;4991084;28;20057;-52
2021/03/23 03:40:53;;;;;;;11.35;7.70;;;;;;;5.37;95.93;101374.59;4990872;28;20038;-50
2021/03/23 03:43:21;;;;;;;11.98;7.70;;;;;;;5.44;95.64;101373.28;4992689;28;20042;-48
2021/03/23 03:45:48;;;;;;;12.15;7.70;;;;;;;5.45;96.12;101385.19;4990017;28;20057;-52
2021/03/23 03:48:15;;;;;;;13.05;7.55;;;;;;;5.49;94.81;101377.81;4991830;28;20105;-51
2021/03/23 03:50:42;;;;;;;10.85;7.45;;;;;;;5.44;95.47;101379.22;4990744;28;20061;-49
2021/03/23 03:53:09;;;;;;;11.63;7.72;;;;;;;5.33;95.54;101383.69;4992196;28;20142;-48
2021/03/23 03:55:37;;;;;;;14.70;7.82;;;;;;;5.35;95.27;101381.25;4991530;28;20774;-48
2021/03/23 03:58:04;;;;;;;9.95;6.68;;;;;;;5.42;95.26;101377.41;4990019;28;20053;-48
2021/03/23 04:00:32;;;;;;;12.60;7.13;;;;;;;5.48;94.98;101380.28;4991622;28;20042;-46
2021/03/23 04:03:02;;;;;;;12.88;7.38;;;;;;;5.27;95.39;101373.19;4990309;28;20656;-47
2021/03/23 04:05:38;;;;;;;13.68;6.90;;;;;;;5.43;95.51;101374.94;4991529;28;20060;-48
2021/03/23 04:08:05;;;;;;;;;;;;;;;5.33;95.38;101377.75;4990545;28;20061;-48
2021/03/23 04:10:31;;;;;;;10.63;7.03;;;;;;;5.28;95.20;101374.94;4992376;28;19926;-50
2021/03/23 04:12:59;;;;;;;8.68;6.50;;;;;;;5.42;95.62;101379.94;4989840;28;20054;-51
2021/03/23 04:15:37;;;;;;;10.82;6.40;;;;;;;5.22;96.04;101366.97;4991671;28;20057;-48
2021/03/23 04:18:04;;;;;;;11.50;6.07;;;;;;;5.38;96.09;101380.56;4989771;28;20058;-48
2021/03/23 04:20:32;;;;;;;13.65;6.35;;;;;;;5.42;94.69;101382.50;4992032;28;20057;-48
2021/03/23 04:23:00;;;;;;;8.43;5.65;;;;;;;5.39;95.49;101377.22;4990461;28;20057;-51
2021/03/23 04:25:30;;;;;;;10.90;6.53;;;;;;;5.47;94.67;101378.53;4991891;28;20050;-47
2021/03/23 04:27:57;;;;;;;9.13;6.07;;;;;;;5.38;95.88;101383.97;4994928;28;20049;-49
2021/03/23 04:30:25;;;;;;;10.80;5.05;;;;;;;5.40;95.60;101384.03;4992436;28;20046;-49
2021/03/23 04:32:55;;;;;;;8.23;5.45;;;;;;;5.13;96.39;101383.31;4993053;28;20065;-49
2021/03/23 04:35:40;;;;;;;7.97;4.60;;;;;;;5.21;96.06;101382.09;4992185;28;20081;-48
2021/03/23 04:38:07;;;;;;;5.43;4.45;;;;;;;5.53;94.34;101384.84;4989508;28;20046;-48
2021/03/23 04:40:34;;;;;;;7.22;4.80;;;;;;;5.24;95.72;101382.28;4991910;28;20401;-46
2021/03/23 04:43:01;;;;;;;8.43;4.95;;;;;;;5.32;95.45;101389.56;4990292;28;20113;-48
2021/03/23 04:45:28;;;;;;;6.65;5.05;;;;;;;5.24;96.38;101389.91;4992202;28;20053;-51
2021/03/23 04:47:54;;;;;;;5.78;4.88;;;;;;;5.32;96.23;101391.25;4989886;28;20056;-48
2021/03/23 04:50:21;;;;;;;8.77;5.15;;;;;;;5.28;95.28;101392.72;4991880;28;20110;-48
2021/03/23 04:52:47;;;;;;;8.00;4.50;;;;;;;5.35;94.76;101394.81;4994021;28;20061;-53
2021/03/23 04:55:16;;;;;;;7.55;4.35;;;;;;;5.32;95.43;101392.13;4990625;28;20050;-47
2021/03/23 04:57:43;;;;;;;6.38;4.43;;;;;;;5.20;95.54;101401.53;4990480;28;20153;-48
2021/03/23 05:00:13;;;;;;;9.80;4.90;;;;;;;5.19;95.73;101393.84;4989827;28;20058;-54
2021/03/23 05:02:40;;;;;;;6.85;4.40;;;;;;;5.12;95.91;101395.13;4991023;28;20148;-49
2021/03/23 05:05:09;;;;;;;5.80;4.60;;;;;;;5.02;96.04;101400.47;4989335;28;20129;-47
2021/03/23 05:07:35;;;;;;;7.93;4.35;;;;;;;5.19;96.11;101404.00;4991164;28;20056;-49
2021/03/23 05:10:03;;;;;;;8.45;4.75;;;;;;;4.99;95.92;101400.25;4989674;28;20054;-46
2021/03/23 05:12:30;;;;;;;6.40;4.32;;;;;;;5.01;96.09;101398.72;4995753;28;20052;-47
2021/03/23 05:14:57;;;;;;;6.63;4.13;;;;;;;5.17;95.27;101401.34;4993362;28;20380;-45
2021/03/23 05:17:23;;;;;;;8.55;4.22;;;;;;;4.91;95.97;101406.56;4991005;28;20049;-50
2021/03/23 05:19:50;;;;;;;5.38;3.65;;;;;;;5.23;95.30;101411.88;4989390;28;20138;-53
2021/03/23 05:22:17;;;;;;;4.68;3.40;;;;;;;5.00;95.18;101420.69;4990444;28;20044;-50
2021/03/23 05:24:44;;;;;;;5.28;3.22;;;;;;;4.99;95.42;101421.47;4992765;28;20645;-47
2021/03/23 05:27:11;;;;;;;4.05;3.17;;;;;;;5.20;94.12;101421.84;4990346;28;20042;-51
2021/03/23 05:29:37;;;;;;;5.05;3.13;;;;;;;5.10;94.12;101422.97;4994051;28;20046;-51
2021/03/23 05:32:04;;;;;;;4.05;2.90;;;;;;;4.91;94.53;101424.34;4994170;28;20057;-48
2021/03/23 05:34:31;;;;;;;6.18;2.80;;;;;;;5.14;94.31;101425.72;4994972;28;20062;-51
2021/03/23 05:36:57;;;;;;;3.03;2.42;;;;;;;5.28;93.49;101428.25;4992358;28;20389;-48
2021/03/23 05:39:24;;;;;;;5.93;2.83;;;;;;;5.25;93.50;101424.66;4995111;28;20054;-48
2021/03/23 05:42:30;;;;;;;4.30;2.40;;;;;;;5.12;93.37;101425.59;4993358;28;20046;-45
2021/03/23 05:45:15;;;;;;;3.33;2.15;;;;;;;5.30;93.62;101424.16;4969714;28;20038;-47
2021/03/23 05:47:43;;;;;;;3.38;2.60;;;;;;;5.12;94.17;101420.53;4999501;28;20057;-53
2021/03/23 05:50:23;;;;;;;3.15;2.10;;;;;;;5.07;94.12;101420.25;4984750;28;20053;-49
2021/03/23 05:53:12;;;;;;;3.55;2.40;;;;;;;5.15;93.55;101424.91;4992214;28;20042;-49
2021/03/23 05:55:42;;;;;;;4.80;2.35;;;;;;;5.29;93.74;101419.84;4993714;28;20488;-47
2021/03/23 05:58:33;;;;;;;5.03;2.28;;;;;;;4.93;94.78;101423.63;4989639;28;20398;-47
2021/03/23 06:01:09;;;;;;;2.38;2.10;;;;;;;5.34;93.15;101422.66;4993913;28;20408;-50
2021/03/23 06:03:45;;;;;;;3.20;2.28;;;;;;;5.40;93.00;101423.00;4994813;28;20096;-47
2021/03/23 06:06:33;;;;;;;3.55;2.55;;;;;;;5.30;92.58;101424.16;4991679;28;20552;-47
2021/03/23 06:09:02;;;;;;;3.08;2.35;;;;;;;5.54;91.69;101427.22;4991476;28;20061;-49
2021/03/23 06:11:49;;;;;;;2.53;2.15;;;;;;;5.58;91.55;101428.28;4993559;28;20042;-48
2021/03/23 06:14:39;;;;;;;3.13;2.05;;;;;;;5.56;92.01;101432.41;4993296;28;20736;-50
2021/03/23 06:17:31;;;;;;;4.63;2.70;;;;;;;5.36;92.63;101434.69;4991218;28;20069;-48
2021/03/23 06:20:37;;;;;;;7.15;3.45;;;;;;;5.46;92.21;101446.25;4990750;28;20397;-48
2021/03/23 06:23:30;;;;;;;5.18;2.90;;;;;;;5.78;91.22;101445.56;4991186;28;20061;-48
2021/03/23 06:26:11;;;;;;;4.55;3.03;;;;;;;5.92;90.71;101451.47;4990721;28;20061;-50
2021/03/23 06:29:02;;;;;;;4.20;3.05;;;;;;;5.61;91.71;101449.66;4994887;28;20085;-52
2021/03/23 06:31:46;;;;;;;5.40;4.00;;;;;;;5.72;91.85;101447.72;4996317;28;20052;-51
2021/03/23 06:34:20;;;;;;;7.30;3.83;;;;;;;5.53;92.29;101453.41;4991802;28;20604;-47
2021/03/23 06:36:50;;;;;;;5.80;4.03;;;;;;;5.93;91.86;101457.41;4990270;28;20057;-44
2021/03/23 06:39:18;;;;;;;8.57;5.10;;;;;;;6.13;90.05;101461.94;4992105;28;20046;-49
2021/03/23 06:41:57;;;;;;;5.57;4.78;;;;;;;6.02;90.97;101453.72;4991382;28;20137;-49
2021/03/23 06:44:34;;;;;;;6.38;5.13;;;;;;;6.00;91.50;101452.75;4996250;28;20054;-47
2021/03/23 06:47:01;;;;;;;7.40;4.97;;;;;;;5.99;90.74;101458.63;4990472;28;20058;-47
2021/03/23 06:49:36;;;;;;;7.82;5.72;;;;;;;5.76;92.00;101459.81;4992868;28;20045;-48
2021/03/23 06:52:20;;;;;;;7.40;5.78;;;;;;;6.04;91.37;101458.88;4990380;28;20043;-46
2021/03/23 06:55:17;;;;;;;11.02;4.72;;;;;;;6.12;90.46;101456.00;4993853;28;20042;-44
2021/03/23 06:57:44;;;;;;;6.72;4.32;;;;;;;6.00;90.74;101472.22;4997421;28;20042;-50
2021/03/23 07:00:14;;;;;;;7.97;4.75;;;;;;;6.21;89.54;101468.34;4991152;28;20046;-45
2021/03/23 07:02:49;;;;;;;7.68;4.50;;;;;;;6.09;89.54;101468.53;4994706;28;20412;-46
2021/03/23 07:05:17;;;;;;;7.60;4.80;;;;;;;6.18;90.13;101475.78;4994844;28;20504;-44
2021/03/23 07:07:56;;;;;;;6.03;4.97;;;;;;;6.26;89.53;101477.09;4993188;28;20053;-45
2021/03/23 07:10:35;;;;;;;10.77;5.13;;;;;;;6.31;88.33;101474.81;4989986;28;20088;-50
2021/03/23 07:13:03;;;;;;;7.10;4.45;;;;;;;6.30;88.73;101470.53;4994613;28;20127;-45
2021/03/23 07:15:33;;;;;;;6.70;5.45;;;;;;;6.36;87.97;101476.81;4997345;28;20076;-47
2021/03/23 07:18:05;;;;;;;7.50;4.95;;;;;;;6.08;89.54;101474.41;4992899;28;20117;-45
2021/03/23 07:20:32;;;;;;;8.05;5.20;;;;;;;6.29;88.45;101478.94;4997577;28;20046;-45
2021/03/23 07:23:01;;;;;;;9.07;5.57;;;;;;;6.38;87.18;101475.25;4993886;28;20054;-46
2021/03/23 07:25:37;;;;;;;9.45;4.95;;;;;;;6.70;85.78;101480.31;4998059;28;20049;-46
2021/03/23 07:28:23;;;;;;;10.30;5.60;;;;;;;6.34;87.47;101478.41;4994646;28;20141;-49
2021/03/23 07:31:20;;;;;;;5.85;4.22;;;;;;;6.58;85.94;101483.97;4995232;28;20069;-46
2021/03/23 07:33:56;;;;;;;7.05;4.57;;;;;;;6.49;86.97;101486.00;4990300;28;20078;-49
2021/03/23 07:36:31;;;;;;;8.88;4.85;;;;;;;6.36;87.18;101484.44;4990444;28;20145;-47
2021/03/23 07:39:19;;;;;;;7.50;4.55;;;;;;;6.54;86.86;101492.22;4996508;28;20083;-47
2021/03/23 07:41:53;;;;;;;6.70;4.95;;;;;;;6.34;87.35;101486.03;4996491;28;20053;-43
2021/03/23 07:44:33;;;;;;;9.27;5.20;;;;;;;6.46;86.65;101492.59;4990715;28;20080;-49
2021/03/23 07:47:05;;;;;;;6.97;4.63;;;;;;;6.76;85.70;101501.91;4992232;28;20050;-44
2021/03/23 07:49:39;;;;;;;8.85;5.30;;;;;;;6.51;88.74;101496.25;4999478;28;20583;-47
2021/03/23 07:52:33;;;;;;;9.00;6.25;;;;;;;6.37;88.38;101493.81;4993359;28;20061;-49
2021/03/23 07:55:02;;;;;;;9.90;5.78;;;;;;;6.62;88.60;101488.44;4982929;28;20553;-50
2021/03/23 07:57:44;;;;;;;6.55;4.88;;;;;;;6.82;87.64;101498.81;4992075;28;20041;-47
2021/03/23 08:00:25;;;;;;;7.45;4.40;;;;;;;6.49;90.99;101501.28;4987713;28;20061;-51
2021/03/23 08:03:19;;;;;;;8.75;4.30;;;;;;;6.72;88.98;101507.63;4987307;28;20050;-50
2021/03/23 08:06:20;;;;;;;8.82;4.60;;;;;;;6.48;90.16;101506.28;4996060;28;20042;-47
2021/03/23 08:09:09;;;;;;;9.10;4.85;;;;;;;6.76;89.36;101507.00;4992167;28;20050;-47
2021/03/23 08:11:53;;;;;;;5.70;3.50;;;;;;;6.48;89.79;101503.75;4990891;28;20038;-47
2021/03/23 08:14:32;;;;;;;7.43;3.88;;;;;;;6.19;91.77;101507.19;4991059;28;20519;-45
2021/03/23 08:17:26;;;;;;;6.13;4.80;;;;;;;6.30;92.67;101508.69;4988967;28;20496;-46
2021/03/23 08:20:18;;;;;;;11.95;6.28;;;;;;;6.33;92.79;101513.91;4989221;28;20042;-47
2021/03/23 08:22:50;;;;;;;6.95;4.80;;;;;;;6.47;91.84;101504.50;4994097;28;20057;-46
2021/03/23 08:25:51;;;;;;;10.02;5.55;;;;;;;6.52;91.40;101515.84;4994072;28;20052;-49
2021/03/23 08:28:30;;;;;;;6.95;4.78;;;;;;;6.72;91.69;101515.25;4990738;28;20509;-48
2021/03/23 08:31:24;;;;;;;8.60;5.35;;;;;;;6.60;92.68;101519.66;4989167;28;20054;-45
2021/03/23 08:34:24;;;;;;;14.85;7.35;;;;;;;6.58;91.30;101526.34;4989329;28;20442;-47
2021/03/23 08:36:59;;;;;;;13.60;8.23;;;;;;;6.85;90.29;101521.88;4990869;28;20818;-46
2021/03/23 08:39:34;;;;;;;10.98;6.45;;;;;;;6.94;89.66;101524.06;4992737;28;20046;-46
2021/03/23 08:42:17;;;;;;;10.73;5.55;;;;;;;6.86;88.50;101529.59;4994451;28;20050;-50
2021/03/23 08:44:46;;;;;;;6.63;4.90;;;;;;;6.77;88.81;101535.88;4992553;28;20058;-47
2021/03/23 08:47:32;;;;;;;6.30;4.03;;;;;;;6.64;89.76;101541.94;4989637;28;20061;-48
2021/03/23 08:50:06;;;;;;;8.10;4.22;;;;;;;6.89;89.21;101542.50;4988455;28;20046;-47
2021/03/23 08:52:40;;;;;;;7.50;4.85;;;;;;;7.35;86.51;101555.16;4992479;28;20497;-50
2021/03/23 08:55:27;;;;;;;7.95;4.95;;;;;;;6.99;87.14;101548.09;4988715;28;20558;-49
2021/03/23 08:58:05;;;;;;;8.88;5.03;;;;;;;7.36;87.06;101556.88;4988594;28;20054;-47
2021/03/23 09:00:37;;;;;;;5.95;4.15;;;;;;;7.25;86.24;101552.00;4980217;28;20049;-44
2021/03/23 09:03:07;;;;;;;4.93;3.72;;;;;;;7.40;86.03;101556.25;4989108;28;20062;-46
2021/03/23 09:05:54;;;;;;;5.57;3.72;;;;;;;7.63;81.20;101557.44;4996633;28;20428;-46
2021/03/23 09:08:21;;;;;;;5.63;3.97;;;;;;;7.19;85.18;101560.22;4995735;28;20045;-44
2021/03/23 09:10:48;;;;;;;4.95;3.67;;;;;;;7.18;83.30;101565.22;4990811;28;20061;-49
2021/03/23 09:13:44;;;;;;;7.50;4.20;;;;;;;6.99;84.66;101566.78;4997469;28;20050;-49
2021/03/23 09:16:11;;;;;;;7.20;3.75;;;;;;;7.32;82.20;101569.38;4950406;28;20042;-47
2021/03/23 09:19:08;;;;;;;4.32;3.25;;;;;;;7.31;81.54;101577.84;4990145;28;20046;-47
2021/03/23 09:21:54;;;;;;;5.60;3.55;;;;;;;7.39;81.85;101568.91;4991823;28;20054;-47
2021/03/23 09:24:30;;;;;;;5.72;3.47;;;;;;;7.26;81.03;101575.03;4994247;28;20042;-46
2021/03/23 09:26:57;;;;;;;5.45;3.60;;;;;;;7.27;81.68;101574.25;4988425;28;20517;-45
2021/03/23 09:29:43;;;;;;;5.80;3.40;;;;;;;7.26;80.97;101590.31;4990631;28;20456;-49
2021/03/23 09:32:12;;;;;;;4.68;3.00;;;;;;;7.08;80.65;101580.03;4988835;28;20046;-47
2021/03/23 09:37:50;;;;;;;7.07;3.78;;;;;;;7.38;80.47;101583.31;4994317;28;20582;-45
2021/03/23 09:40:17;;;;;;;4.80;3.20;;;;;;;7.38;80.94;101583.31;4993485;28;20144;-48
2021/03/23 09:43:02;;;;;;;4.28;3.53;;;;;;;7.11;81.09;101589.47;4989031;28;20050;-47
2021/03/23 09:45:37;;;;;;;6.63;3.35;;;;;;;7.09;80.66;101586.00;4993593;28;20520;-46
2021/03/23 09:48:13;;;;;;;5.35;3.03;;;;;;;7.15;80.14;101584.63;4989575;28;20050;-48
2021/03/23 09:50:58;;;;;;;5.18;3.17;;;;;;;7.46;79.73;101582.84;4990019;28;20069;-46
2021/03/23 09:53:36;;;;;;;5.95;3.58;;;;;;;7.15;81.44;101586.31;4990822;28;20046;-52
2021/03/23 09:56:21;;;;;;;5.47;3.22;;;;;;;7.35;81.29;101588.28;4985339;28;20050;-48
2021/03/23 09:59:09;;;;;;;5.22;2.90;;;;;;;7.38;79.95;101590.09;4989473;28;20441;-47
2021/03/23 10:01:39;;;;;;;4.25;3.33;;;;;;;7.45;79.68;101583.66;4989836;28;20050;-47
2021/03/23 10:04:06;;;;;;;3.08;2.78;;;;;;;7.17;80.38;101584.75;4989075;28;20508;-46
2021/03/23 10:06:47;;;;;;;5.85;3.30;;;;;;;7.29;81.12;101593.00;4989592;28;20053;-46
2021/03/23 10:09:23;;;;;;;5.80;3.50;;;;;;;7.14;80.68;101594.75;4987466;28;20047;-47
2021/03/23 10:11:49;;;;;;;4.78;3.40;;;;;;;7.51;78.24;101591.63;4986640;28;20536;-45
2021/03/23 10:14:31;;;;;;;4.40;3.22;;;;;;;7.58;78.08;101596.22;4991845;28;20492;-48
2021/03/23 10:17:20;;;;;;;3.90;2.58;;;;;;;7.49;77.81;101598.28;4991014;28;20049;-45
2021/03/23 10:19:56;;;;;;;3.20;2.90;;;;;;;7.44;78.47;101597.16;4991675;28;20076;-49
2021/03/23 10:22:35;;;;;;;6.60;3.17;;;;;;;7.65;77.46;101593.22;4995290;28;20092;-44
2021/03/23 10:25:07;;;;;;;4.45;2.78;;;;;;;7.71;77.41;101600.28;4993356;28;20132;-44
2021/03/23 10:27:36;;;;;;;4.00;3.00;;;;;;;7.54;77.66;101600.31;4996168;28;20060;-51
2021/03/23 10:30:18;;;;;;;4.90;2.88;;;;;;;7.52;77.62;101593.34;4995921;28;20054;-47
2021/03/23 10:32:53;;;;;;;3.63;2.92;;;;;;;7.76;76.22;101611.59;4994736;28;20050;-45
2021/03/23 10:35:29;;;;;;;3.28;2.47;;;;;;;7.69;75.55;101607.00;4996649;28;20050;-46
2021/03/23 10:38:20;;;;;;;4.23;2.70;;;;;;;7.74;74.74;101605.56;4990776;28;20046;-49
2021/03/23 10:40:51;;;;;;;4.82;3.08;;;;;;;7.62;76.34;101596.47;4991194;28;20046;-45
2021/03/23 10:43:37;;;;;;;4.40;2.72;;;;;;;7.71;75.56;101595.19;4992314;28;20042;-46
2021/03/23 10:46:37;;;;;;;3.75;2.80;;;;;;;7.91;73.57;101603.09;4978647;28;20065;-52
2021/03/23 10:49:19;;;;;;;2.50;2.30;;;;;;;8.11;72.84;101598.97;4994128;28;20057;-47
2021/03/23 10:51:48;;;;;;;2.50;2.10;;;;;;;7.85;72.36;101601.88;4994443;28;20054;-50
2021/03/23 10:54:21;;;;;;;3.88;2.72;;;;;;;8.38;72.67;101602.06;4991837;28;20050;-49
2021/03/23 10:56:51;;;;;;;4.13;2.10;;;;;;;8.09;72.12;101604.81;4990648;28;20046;-51
2021/03/23 10:59:18;;;;;;;3.63;2.45;;;;;;;8.20;70.65;101608.78;4991921;28;20054;-47
2021/03/23 11:02:03;;;;;;;3.75;2.08;;;;;;;8.28;71.63;101604.06;4994189;28;20411;-49
2021/03/23 11:04:31;;;;;;;2.67;2.35;;;;;;;8.32;72.47;101604.28;4996220;28;20131;-45
2021/03/23 11:07:18;;;;;;;3.30;2.28;;;;;;;8.37;71.39;101607.97;4990750;28;20050;-50
2021/03/23 11:09:45;;;;;;;2.53;2.15;;;;;;;8.14;73.17;101595.72;4996750;28;20057;-45
2021/03/23 11:12:12;;;;;;;4.60;2.78;;;;;;;8.64;70.41;101603.34;4991644;28;20054;-48
2021/03/23 11:14:39;;;;;;;6.35;2.90;;;;;;;8.81;69.67;101604.13;4995133;28;20050;-48
2021/03/23 11:17:11;;;;;;;2.42;2.25;;;;;;;8.76;69.39;101607.25;4991255;28;20050;-47
2021/03/23 11:19:41;;;;;;;3.30;2.65;;;;;;;8.82;70.55;101599.88;4993820;28;20092;-48
2021/03/23 11:22:12;;;;;;;3.00;2.67;;;;;;;8.82;69.75;101603.31;4990098;28;20058;-50
2021/03/23 11:24:39;;;;;;;3.70;2.45;;;;;;;8.78;70.40;101605.66;4993838;28;20053;-50
2021/03/23 11:27:07;;;;;;;3.67;2.60;;;;;;;9.05;69.05;101601.84;4991433;28;20053;-45
2021/03/23 11:29:34;;;;;;;5.90;2.63;;;;;;;8.75;68.91;101598.72;4993450;28;20412;-53
2021/03/23 11:32:00;;;;;;;3.47;2.55;;;;;;;8.72;71.45;101603.69;4993417;28;20049;-47
2021/03/23 11:34:27;;;;;;;3.00;2.70;;;;;;;8.61;69.86;101594.66;4992828;28;20042;-47
2021/03/23 11:36:54;;;;;;;4.28;2.90;;;;;;;8.81;71.30;101601.56;4989800;28;20058;-46
2021/03/23 11:39:24;;;;;;;4.63;2.80;;;;;;;9.23;71.20;101590.72;4993500;28;20125;-47
2021/03/23 11:42:04;;;;;;;5.53;3.10;;;;;;;9.01;69.63;101596.50;4990389;28;20046;-46
2021/03/23 11:44:40;;;;;;;5.25;2.50;;;;;;;9.10;68.37;101599.50;4993339;28;20038;-48
2021/03/23 11:47:26;;;;;;;3.42;2.38;;;;;;;9.70;66.01;101601.38;4989449;28;20050;-51
2021/03/23 11:50:08;;;;;;;5.70;3.17;;;;;;;9.37;67.48;101597.31;4989962;28;20046;-50
2021/03/23 11:52:36;;;;;;;3.17;2.15;;;;;;;9.65;67.28;101587.50;4993044;28;20572;-45
2021/03/23 11:55:05;;;;;;;3.67;2.97;;;;;;;10.06;65.77;101582.44;4989976;28;20907;-46
2021/03/23 11:57:32;;;;;;;4.95;2.13;;;;;;;10.38;63.41;101584.66;4989601;28;20769;-45
2021/03/23 11:59:59;;;;;;;2.85;2.08;;;;;;;9.61;66.13;101583.09;4989514;28;20781;-44
2021/03/23 12:02:29;;;;;;;3.30;1.98;;;;;;;9.66;64.47;101576.50;4991745;28;20050;-46